sensor_id;sensor_type;location;lat;lon;timestamp;P1;durP1;ratioP1;P2;durP2;ratioP2
21480;SDS011;10902;48.158;8.634;2023-04-19T00:01:15;18.40;;;13.48;;
21480;SDS011;10902;48.158;8.634;2023-04-19T00:03:40;17.38;;;12.30;;
21480;SDS011;10902;48.158;8.634;2023-04-19T00:06:06;16.88;;;12.77;;
21480;SDS011;10902;48.158;8.634;2023-04-19T00:08:32;16.75;;;12.60;;
21480;SDS011;10902;48.158;8.634;2023-04-19T00:10:58;15.88;;;12.80;;
21480;SDS011;10902;48.158;8.634;2023-04-19T00:13:23;18.35;;;13.02;;
21480;SDS011;10902;48.158;8.634;2023-04-19T00:15:49;15.60;;;12.13;;
21480;SDS011;10902;48.158;8.634;2023-04-19T00:18:15;17.92;;;13.50;;
21480;SDS011;10902;48.158;8.634;2023-04-19T00:20:40;17.90;;;13.20;;
21480;SDS011;10902;48.158;8.634;2023-04-19T00:23:06;18.05;;;13.32;;
21480;SDS011;10902;48.158;8.634;2023-04-19T00:25:32;17.35;;;13.88;;
21480;SDS011;10902;48.158;8.634;2023-04-19T00:27:58;20.30;;;14.40;;
21480;SDS011;10902;48.158;8.634;2023-04-19T00:30:24;16.98;;;13.77;;
21480;SDS011;10902;48.158;8.634;2023-04-19T00:32:49;16.67;;;13.30;;
21480;SDS011;10902;48.158;8.634;2023-04-19T00:35:15;20.90;;;14.95;;
21480;SDS011;10902;48.158;8.634;2023-04-19T00:37:41;20.73;;;15.60;;
21480;SDS011;10902;48.158;8.634;2023-04-19T00:40:07;21.77;;;14.20;;
21480;SDS011;10902;48.158;8.634;2023-04-19T00:42:33;19.10;;;14.38;;
21480;SDS011;10902;48.158;8.634;2023-04-19T00:45:00;19.95;;;14.18;;
21480;SDS011;10902;48.158;8.634;2023-04-19T00:47:25;19.58;;;14.57;;
21480;SDS011;10902;48.158;8.634;2023-04-19T00:49:51;20.80;;;15.73;;
21480;SDS011;10902;48.158;8.634;2023-04-19T00:52:16;20.30;;;15.52;;
21480;SDS011;10902;48.158;8.634;2023-04-19T00:54:42;19.20;;;14.05;;
21480;SDS011;10902;48.158;8.634;2023-04-19T00:57:09;19.73;;;14.80;;
21480;SDS011;10902;48.158;8.634;2023-04-19T00:59:35;19.23;;;15.05;;
21480;SDS011;10902;48.158;8.634;2023-04-19T01:02:01;20.60;;;15.50;;
21480;SDS011;10902;48.158;8.634;2023-04-19T01:04:27;22.92;;;17.20;;
21480;SDS011;10902;48.158;8.634;2023-04-19T01:06:52;20.90;;;16.00;;
21480;SDS011;10902;48.158;8.634;2023-04-19T01:09:18;21.85;;;15.85;;
21480;SDS011;10902;48.158;8.634;2023-04-19T01:11:44;22.45;;;16.92;;
21480;SDS011;10902;48.158;8.634;2023-04-19T01:14:09;23.40;;;16.70;;
21480;SDS011;10902;48.158;8.634;2023-04-19T01:16:35;18.80;;;14.60;;
21480;SDS011;10902;48.158;8.634;2023-04-19T01:19:00;19.73;;;15.25;;
21480;SDS011;10902;48.158;8.634;2023-04-19T01:21:26;23.13;;;15.82;;
21480;SDS011;10902;48.158;8.634;2023-04-19T01:23:54;21.15;;;15.20;;
21480;SDS011;10902;48.158;8.634;2023-04-19T01:26:20;22.13;;;15.23;;
21480;SDS011;10902;48.158;8.634;2023-04-19T01:28:45;20.00;;;14.57;;
21480;SDS011;10902;48.158;8.634;2023-04-19T01:31:11;19.38;;;14.80;;
21480;SDS011;10902;48.158;8.634;2023-04-19T01:33:36;21.10;;;14.77;;
21480;SDS011;10902;48.158;8.634;2023-04-19T01:36:02;19.25;;;14.77;;
21480;SDS011;10902;48.158;8.634;2023-04-19T01:38:28;18.73;;;14.43;;
21480;SDS011;10902;48.158;8.634;2023-04-19T01:40:53;20.70;;;15.52;;
21480;SDS011;10902;48.158;8.634;2023-04-19T01:43:21;18.80;;;14.75;;
21480;SDS011;10902;48.158;8.634;2023-04-19T01:45:46;20.48;;;14.73;;
21480;SDS011;10902;48.158;8.634;2023-04-19T01:48:12;20.67;;;15.63;;
21480;SDS011;10902;48.158;8.634;2023-04-19T01:50:38;20.83;;;14.68;;
21480;SDS011;10902;48.158;8.634;2023-04-19T01:53:03;18.45;;;14.50;;
21480;SDS011;10902;48.158;8.634;2023-04-19T01:55:29;20.08;;;14.75;;
21480;SDS011;10902;48.158;8.634;2023-04-19T01:57:55;19.17;;;15.35;;
21480;SDS011;10902;48.158;8.634;2023-04-19T02:00:20;18.75;;;14.43;;
21480;SDS011;10902;48.158;8.634;2023-04-19T02:02:46;18.42;;;14.02;;
21480;SDS011;10902;48.158;8.634;2023-04-19T02:05:12;19.48;;;14.85;;
21480;SDS011;10902;48.158;8.634;2023-04-19T02:07:38;20.30;;;15.55;;
21480;SDS011;10902;48.158;8.634;2023-04-19T02:10:04;21.15;;;15.65;;
21480;SDS011;10902;48.158;8.634;2023-04-19T02:12:30;19.45;;;15.60;;
21480;SDS011;10902;48.158;8.634;2023-04-19T02:14:58;22.83;;;16.88;;
21480;SDS011;10902;48.158;8.634;2023-04-19T02:17:26;21.20;;;16.00;;
21480;SDS011;10902;48.158;8.634;2023-04-19T02:19:52;22.02;;;16.48;;
21480;SDS011;10902;48.158;8.634;2023-04-19T02:22:17;23.13;;;16.67;;
21480;SDS011;10902;48.158;8.634;2023-04-19T02:24:43;23.35;;;17.27;;
21480;SDS011;10902;48.158;8.634;2023-04-19T02:27:09;21.63;;;14.93;;
21480;SDS011;10902;48.158;8.634;2023-04-19T02:29:35;22.90;;;16.85;;
21480;SDS011;10902;48.158;8.634;2023-04-19T02:32:02;21.75;;;16.40;;
21480;SDS011;10902;48.158;8.634;2023-04-19T02:34:30;22.20;;;16.13;;
21480;SDS011;10902;48.158;8.634;2023-04-19T02:36:56;23.77;;;16.40;;
21480;SDS011;10902;48.158;8.634;2023-04-19T02:39:21;21.58;;;15.55;;
21480;SDS011;10902;48.158;8.634;2023-04-19T02:41:47;20.67;;;15.07;;
21480;SDS011;10902;48.158;8.634;2023-04-19T02:44:13;21.13;;;14.45;;
21480;SDS011;10902;48.158;8.634;2023-04-19T02:46:39;20.08;;;14.65;;
21480;SDS011;10902;48.158;8.634;2023-04-19T02:49:04;19.13;;;14.30;;
21480;SDS011;10902;48.158;8.634;2023-04-19T02:51:30;18.48;;;14.40;;
21480;SDS011;10902;48.158;8.634;2023-04-19T02:53:56;18.30;;;13.13;;
21480;SDS011;10902;48.158;8.634;2023-04-19T02:56:21;18.17;;;14.02;;
21480;SDS011;10902;48.158;8.634;2023-04-19T02:58:47;20.67;;;15.02;;
21480;SDS011;10902;48.158;8.634;2023-04-19T03:01:12;20.10;;;15.05;;
21480;SDS011;10902;48.158;8.634;2023-04-19T03:03:38;21.35;;;15.80;;
21480;SDS011;10902;48.158;8.634;2023-04-19T03:06:04;22.63;;;16.02;;
21480;SDS011;10902;48.158;8.634;2023-04-19T03:08:29;18.77;;;14.60;;
21480;SDS011;10902;48.158;8.634;2023-04-19T03:10:55;19.63;;;14.68;;
21480;SDS011;10902;48.158;8.634;2023-04-19T03:13:20;22.25;;;16.40;;
21480;SDS011;10902;48.158;8.634;2023-04-19T03:15:46;22.65;;;17.05;;
21480;SDS011;10902;48.158;8.634;2023-04-19T03:18:12;22.08;;;15.68;;
21480;SDS011;10902;48.158;8.634;2023-04-19T03:20:40;20.90;;;15.50;;
21480;SDS011;10902;48.158;8.634;2023-04-19T03:23:06;22.23;;;16.23;;
21480;SDS011;10902;48.158;8.634;2023-04-19T03:25:32;21.98;;;15.55;;
21480;SDS011;10902;48.158;8.634;2023-04-19T03:27:57;22.23;;;16.15;;
21480;SDS011;10902;48.158;8.634;2023-04-19T03:30:23;23.95;;;17.63;;
21480;SDS011;10902;48.158;8.634;2023-04-19T03:32:49;21.55;;;16.67;;
21480;SDS011;10902;48.158;8.634;2023-04-19T03:35:16;25.05;;;18.00;;
21480;SDS011;10902;48.158;8.634;2023-04-19T03:37:41;29.95;;;19.40;;
21480;SDS011;10902;48.158;8.634;2023-04-19T03:40:07;22.20;;;16.33;;
21480;SDS011;10902;48.158;8.634;2023-04-19T03:42:33;24.02;;;17.40;;
21480;SDS011;10902;48.158;8.634;2023-04-19T03:44:59;22.48;;;16.95;;
21480;SDS011;10902;48.158;8.634;2023-04-19T03:47:27;23.33;;;17.63;;
21480;SDS011;10902;48.158;8.634;2023-04-19T03:49:53;25.60;;;17.25;;
21480;SDS011;10902;48.158;8.634;2023-04-19T03:52:18;21.85;;;16.92;;
21480;SDS011;10902;48.158;8.634;2023-04-19T03:54:44;25.08;;;18.88;;
21480;SDS011;10902;48.158;8.634;2023-04-19T03:57:10;22.42;;;16.65;;
21480;SDS011;10902;48.158;8.634;2023-04-19T03:59:37;22.45;;;16.27;;
21480;SDS011;10902;48.158;8.634;2023-04-19T04:02:02;25.27;;;16.35;;
21480;SDS011;10902;48.158;8.634;2023-04-19T04:04:30;21.33;;;16.00;;
21480;SDS011;10902;48.158;8.634;2023-04-19T04:06:55;22.25;;;16.73;;
21480;SDS011;10902;48.158;8.634;2023-04-19T04:09:21;23.00;;;16.70;;
21480;SDS011;10902;48.158;8.634;2023-04-19T04:11:46;22.70;;;16.45;;
21480;SDS011;10902;48.158;8.634;2023-04-19T04:14:12;23.30;;;17.05;;
21480;SDS011;10902;48.158;8.634;2023-04-19T04:16:38;21.63;;;15.82;;
21480;SDS011;10902;48.158;8.634;2023-04-19T04:19:03;23.90;;;16.83;;
21480;SDS011;10902;48.158;8.634;2023-04-19T04:21:29;21.58;;;15.25;;
21480;SDS011;10902;48.158;8.634;2023-04-19T04:23:54;22.58;;;16.65;;
21480;SDS011;10902;48.158;8.634;2023-04-19T04:26:20;28.92;;;20.52;;
21480;SDS011;10902;48.158;8.634;2023-04-19T04:28:49;25.17;;;17.98;;
21480;SDS011;10902;48.158;8.634;2023-04-19T04:31:14;28.65;;;20.20;;
21480;SDS011;10902;48.158;8.634;2023-04-19T04:33:42;23.88;;;17.90;;
21480;SDS011;10902;48.158;8.634;2023-04-19T04:36:08;24.08;;;17.52;;
21480;SDS011;10902;48.158;8.634;2023-04-19T04:38:36;24.13;;;17.15;;
21480;SDS011;10902;48.158;8.634;2023-04-19T04:41:01;25.90;;;17.95;;
21480;SDS011;10902;48.158;8.634;2023-04-19T04:43:27;24.60;;;17.67;;
21480;SDS011;10902;48.158;8.634;2023-04-19T04:45:54;23.77;;;17.23;;
21480;SDS011;10902;48.158;8.634;2023-04-19T04:48:21;24.63;;;17.50;;
21480;SDS011;10902;48.158;8.634;2023-04-19T04:50:47;25.77;;;18.50;;
21480;SDS011;10902;48.158;8.634;2023-04-19T04:53:13;24.15;;;17.85;;
21480;SDS011;10902;48.158;8.634;2023-04-19T04:55:39;22.63;;;16.50;;
21480;SDS011;10902;48.158;8.634;2023-04-19T04:58:04;22.73;;;17.77;;
21480;SDS011;10902;48.158;8.634;2023-04-19T05:00:30;23.30;;;17.92;;
21480;SDS011;10902;48.158;8.634;2023-04-19T05:02:57;24.65;;;18.38;;
21480;SDS011;10902;48.158;8.634;2023-04-19T05:05:23;24.15;;;18.52;;
21480;SDS011;10902;48.158;8.634;2023-04-19T05:07:48;23.55;;;17.10;;
21480;SDS011;10902;48.158;8.634;2023-04-19T05:10:14;24.58;;;17.17;;
21480;SDS011;10902;48.158;8.634;2023-04-19T05:12:40;23.25;;;16.90;;
21480;SDS011;10902;48.158;8.634;2023-04-19T05:15:06;23.05;;;17.33;;
21480;SDS011;10902;48.158;8.634;2023-04-19T05:17:32;22.33;;;17.25;;
21480;SDS011;10902;48.158;8.634;2023-04-19T05:19:57;24.38;;;17.75;;
21480;SDS011;10902;48.158;8.634;2023-04-19T05:22:23;24.10;;;17.65;;
21480;SDS011;10902;48.158;8.634;2023-04-19T05:24:49;24.50;;;17.42;;
21480;SDS011;10902;48.158;8.634;2023-04-19T05:27:15;23.75;;;17.08;;
21480;SDS011;10902;48.158;8.634;2023-04-19T05:29:40;23.05;;;16.75;;
21480;SDS011;10902;48.158;8.634;2023-04-19T05:32:06;27.80;;;19.67;;
21480;SDS011;10902;48.158;8.634;2023-04-19T05:34:32;24.55;;;17.77;;
21480;SDS011;10902;48.158;8.634;2023-04-19T05:36:58;23.75;;;17.75;;
21480;SDS011;10902;48.158;8.634;2023-04-19T05:39:24;23.35;;;16.83;;
21480;SDS011;10902;48.158;8.634;2023-04-19T05:41:50;25.80;;;18.25;;
21480;SDS011;10902;48.158;8.634;2023-04-19T05:44:15;24.45;;;18.20;;
21480;SDS011;10902;48.158;8.634;2023-04-19T05:46:41;24.00;;;17.27;;
21480;SDS011;10902;48.158;8.634;2023-04-19T05:49:07;25.88;;;18.65;;
21480;SDS011;10902;48.158;8.634;2023-04-19T05:51:32;26.05;;;18.00;;
21480;SDS011;10902;48.158;8.634;2023-04-19T05:53:59;23.75;;;18.05;;
21480;SDS011;10902;48.158;8.634;2023-04-19T05:56:25;24.55;;;17.48;;
21480;SDS011;10902;48.158;8.634;2023-04-19T05:58:50;23.27;;;17.55;;
21480;SDS011;10902;48.158;8.634;2023-04-19T06:01:16;23.45;;;17.40;;
21480;SDS011;10902;48.158;8.634;2023-04-19T06:03:42;23.95;;;16.95;;
21480;SDS011;10902;48.158;8.634;2023-04-19T06:06:07;23.23;;;17.10;;
21480;SDS011;10902;48.158;8.634;2023-04-19T06:08:33;23.55;;;17.83;;
21480;SDS011;10902;48.158;8.634;2023-04-19T06:10:58;24.48;;;17.38;;
21480;SDS011;10902;48.158;8.634;2023-04-19T06:13:24;23.88;;;17.00;;
21480;SDS011;10902;48.158;8.634;2023-04-19T06:15:50;22.85;;;17.05;;
21480;SDS011;10902;48.158;8.634;2023-04-19T06:18:15;22.30;;;16.65;;
21480;SDS011;10902;48.158;8.634;2023-04-19T06:20:41;24.98;;;16.95;;
21480;SDS011;10902;48.158;8.634;2023-04-19T06:23:07;23.02;;;16.85;;
21480;SDS011;10902;48.158;8.634;2023-04-19T06:25:32;20.67;;;16.20;;
21480;SDS011;10902;48.158;8.634;2023-04-19T06:27:58;23.30;;;17.10;;
21480;SDS011;10902;48.158;8.634;2023-04-19T06:30:24;23.00;;;16.40;;
21480;SDS011;10902;48.158;8.634;2023-04-19T06:32:50;21.38;;;16.17;;
21480;SDS011;10902;48.158;8.634;2023-04-19T06:35:15;19.27;;;14.65;;
21480;SDS011;10902;48.158;8.634;2023-04-19T06:37:41;19.75;;;15.55;;
21480;SDS011;10902;48.158;8.634;2023-04-19T06:40:07;21.30;;;16.15;;
21480;SDS011;10902;48.158;8.634;2023-04-19T06:42:33;23.48;;;16.85;;
21480;SDS011;10902;48.158;8.634;2023-04-19T06:44:59;22.25;;;16.58;;
21480;SDS011;10902;48.158;8.634;2023-04-19T06:47:25;22.70;;;17.13;;
21480;SDS011;10902;48.158;8.634;2023-04-19T06:49:51;23.95;;;17.73;;
21480;SDS011;10902;48.158;8.634;2023-04-19T06:52:17;26.58;;;19.88;;
21480;SDS011;10902;48.158;8.634;2023-04-19T06:54:46;25.90;;;18.65;;
21480;SDS011;10902;48.158;8.634;2023-04-19T06:57:12;25.05;;;17.42;;
21480;SDS011;10902;48.158;8.634;2023-04-19T06:59:38;24.35;;;17.38;;
21480;SDS011;10902;48.158;8.634;2023-04-19T07:02:04;24.98;;;18.38;;
21480;SDS011;10902;48.158;8.634;2023-04-19T07:04:30;24.23;;;18.58;;
21480;SDS011;10902;48.158;8.634;2023-04-19T07:06:55;24.38;;;18.35;;
21480;SDS011;10902;48.158;8.634;2023-04-19T07:09:21;27.02;;;19.98;;
21480;SDS011;10902;48.158;8.634;2023-04-19T07:11:46;25.02;;;18.73;;
21480;SDS011;10902;48.158;8.634;2023-04-19T07:14:12;28.83;;;19.42;;
21480;SDS011;10902;48.158;8.634;2023-04-19T07:16:38;25.65;;;19.17;;
21480;SDS011;10902;48.158;8.634;2023-04-19T07:19:03;23.83;;;16.92;;
21480;SDS011;10902;48.158;8.634;2023-04-19T07:21:29;26.48;;;18.80;;
21480;SDS011;10902;48.158;8.634;2023-04-19T07:23:57;25.25;;;19.77;;
21480;SDS011;10902;48.158;8.634;2023-04-19T07:26:23;26.90;;;19.17;;
21480;SDS011;10902;48.158;8.634;2023-04-19T07:28:49;29.20;;;19.92;;
21480;SDS011;10902;48.158;8.634;2023-04-19T07:31:15;26.70;;;18.80;;
21480;SDS011;10902;48.158;8.634;2023-04-19T07:33:41;26.98;;;17.95;;
21480;SDS011;10902;48.158;8.634;2023-04-19T07:36:08;25.67;;;18.42;;
21480;SDS011;10902;48.158;8.634;2023-04-19T07:38:33;27.20;;;19.13;;
21480;SDS011;10902;48.158;8.634;2023-04-19T07:40:59;27.67;;;19.38;;
21480;SDS011;10902;48.158;8.634;2023-04-19T07:43:24;26.00;;;18.08;;
21480;SDS011;10902;48.158;8.634;2023-04-19T07:45:51;27.10;;;20.08;;
21480;SDS011;10902;48.158;8.634;2023-04-19T07:48:17;22.65;;;17.23;;
21480;SDS011;10902;48.158;8.634;2023-04-19T07:50:43;24.30;;;17.35;;
21480;SDS011;10902;48.158;8.634;2023-04-19T07:53:08;22.73;;;16.88;;
21480;SDS011;10902;48.158;8.634;2023-04-19T07:55:34;23.17;;;17.38;;
21480;SDS011;10902;48.158;8.634;2023-04-19T07:58:00;22.60;;;16.98;;
21480;SDS011;10902;48.158;8.634;2023-04-19T08:00:26;21.02;;;17.10;;
21480;SDS011;10902;48.158;8.634;2023-04-19T08:02:53;22.67;;;17.10;;
21480;SDS011;10902;48.158;8.634;2023-04-19T08:05:21;22.92;;;16.23;;
21480;SDS011;10902;48.158;8.634;2023-04-19T08:07:47;22.85;;;16.95;;
21480;SDS011;10902;48.158;8.634;2023-04-19T08:10:12;21.85;;;15.85;;
21480;SDS011;10902;48.158;8.634;2023-04-19T08:12:39;21.33;;;15.85;;
21480;SDS011;10902;48.158;8.634;2023-04-19T08:15:06;19.67;;;15.63;;
21480;SDS011;10902;48.158;8.634;2023-04-19T08:17:33;23.42;;;16.27;;
21480;SDS011;10902;48.158;8.634;2023-04-19T08:19:59;22.05;;;17.00;;
21480;SDS011;10902;48.158;8.634;2023-04-19T08:22:24;22.50;;;15.93;;
21480;SDS011;10902;48.158;8.634;2023-04-19T08:24:51;20.23;;;15.52;;
21480;SDS011;10902;48.158;8.634;2023-04-19T08:27:17;20.77;;;15.93;;
21480;SDS011;10902;48.158;8.634;2023-04-19T08:29:43;20.73;;;15.85;;
21480;SDS011;10902;48.158;8.634;2023-04-19T08:32:10;20.38;;;15.63;;
21480;SDS011;10902;48.158;8.634;2023-04-19T08:34:37;21.48;;;16.67;;
21480;SDS011;10902;48.158;8.634;2023-04-19T08:37:03;21.52;;;16.48;;
21480;SDS011;10902;48.158;8.634;2023-04-19T08:39:30;24.08;;;15.80;;
21480;SDS011;10902;48.158;8.634;2023-04-19T08:41:56;22.55;;;16.40;;
21480;SDS011;10902;48.158;8.634;2023-04-19T08:44:31;21.38;;;16.13;;
21480;SDS011;10902;48.158;8.634;2023-04-19T08:47:00;23.05;;;16.23;;
21480;SDS011;10902;48.158;8.634;2023-04-19T08:49:29;23.77;;;16.42;;
21480;SDS011;10902;48.158;8.634;2023-04-19T08:51:58;22.92;;;16.90;;
21480;SDS011;10902;48.158;8.634;2023-04-19T08:54:25;20.30;;;15.40;;
21480;SDS011;10902;48.158;8.634;2023-04-19T08:56:53;20.98;;;15.45;;
21480;SDS011;10902;48.158;8.634;2023-04-19T08:59:18;20.25;;;15.45;;
21480;SDS011;10902;48.158;8.634;2023-04-19T09:01:44;18.55;;;13.90;;
21480;SDS011;10902;48.158;8.634;2023-04-19T09:04:10;20.25;;;15.13;;
21480;SDS011;10902;48.158;8.634;2023-04-19T09:06:36;21.95;;;15.88;;
21480;SDS011;10902;48.158;8.634;2023-04-19T09:09:16;20.33;;;14.55;;
21480;SDS011;10902;48.158;8.634;2023-04-19T09:11:41;20.38;;;15.80;;
21480;SDS011;10902;48.158;8.634;2023-04-19T09:14:12;17.38;;;13.98;;
21480;SDS011;10902;48.158;8.634;2023-04-19T09:16:38;18.98;;;14.05;;
21480;SDS011;10902;48.158;8.634;2023-04-19T09:19:04;20.02;;;14.70;;
21480;SDS011;10902;48.158;8.634;2023-04-19T09:21:30;20.80;;;14.60;;
21480;SDS011;10902;48.158;8.634;2023-04-19T09:23:58;17.70;;;13.82;;
21480;SDS011;10902;48.158;8.634;2023-04-19T09:26:24;20.52;;;15.13;;
21480;SDS011;10902;48.158;8.634;2023-04-19T09:28:57;19.17;;;14.80;;
21480;SDS011;10902;48.158;8.634;2023-04-19T09:31:33;19.45;;;13.88;;
21480;SDS011;10902;48.158;8.634;2023-04-19T09:34:13;18.23;;;14.00;;
21480;SDS011;10902;48.158;8.634;2023-04-19T09:36:40;17.75;;;13.63;;
21480;SDS011;10902;48.158;8.634;2023-04-19T09:39:06;20.00;;;13.05;;
21480;SDS011;10902;48.158;8.634;2023-04-19T09:41:32;20.17;;;14.32;;
21480;SDS011;10902;48.158;8.634;2023-04-19T09:44:10;18.58;;;14.52;;
21480;SDS011;10902;48.158;8.634;2023-04-19T09:46:40;16.63;;;12.75;;
21480;SDS011;10902;48.158;8.634;2023-04-19T09:51:42;16.75;;;12.27;;
21480;SDS011;10902;48.158;8.634;2023-04-19T09:54:09;15.68;;;12.73;;
21480;SDS011;10902;48.158;8.634;2023-04-19T09:56:36;14.88;;;11.77;;
21480;SDS011;10902;48.158;8.634;2023-04-19T09:59:02;17.58;;;12.05;;
21480;SDS011;10902;48.158;8.634;2023-04-19T10:02:13;15.68;;;11.90;;
21480;SDS011;10902;48.158;8.634;2023-04-19T10:04:20;16.63;;;11.85;;
21480;SDS011;10902;48.158;8.634;2023-04-19T10:06:50;14.68;;;11.32;;
21480;SDS011;10902;48.158;8.634;2023-04-19T10:09:18;15.98;;;11.95;;
21480;SDS011;10902;48.158;8.634;2023-04-19T10:11:48;21.38;;;12.90;;
21480;SDS011;10902;48.158;8.634;2023-04-19T10:14:16;16.55;;;12.27;;
21480;SDS011;10902;48.158;8.634;2023-04-19T10:16:45;17.88;;;13.13;;
21480;SDS011;10902;48.158;8.634;2023-04-19T10:19:12;18.67;;;13.10;;
21480;SDS011;10902;48.158;8.634;2023-04-19T10:21:42;17.90;;;12.27;;
21480;SDS011;10902;48.158;8.634;2023-04-19T10:24:11;18.85;;;12.30;;
21480;SDS011;10902;48.158;8.634;2023-04-19T10:32:38;14.38;;;11.35;;
21480;SDS011;10902;48.158;8.634;2023-04-19T10:35:09;14.90;;;11.68;;
21480;SDS011;10902;48.158;8.634;2023-04-19T10:37:40;16.88;;;11.60;;
21480;SDS011;10902;48.158;8.634;2023-04-19T10:43:21;14.82;;;11.63;;
21480;SDS011;10902;48.158;8.634;2023-04-19T10:45:51;16.00;;;11.45;;
21480;SDS011;10902;48.158;8.634;2023-04-19T10:51:04;15.40;;;11.10;;
21480;SDS011;10902;48.158;8.634;2023-04-19T11:04:03;14.95;;;11.18;;
21480;SDS011;10902;48.158;8.634;2023-04-19T11:06:33;15.20;;;10.73;;
21480;SDS011;10902;48.158;8.634;2023-04-19T11:09:00;17.70;;;12.23;;
21480;SDS011;10902;48.158;8.634;2023-04-19T11:11:34;14.80;;;11.55;;
21480;SDS011;10902;48.158;8.634;2023-04-19T11:14:00;16.13;;;11.20;;
21480;SDS011;10902;48.158;8.634;2023-04-19T11:16:28;12.35;;;9.80;;
21480;SDS011;10902;48.158;8.634;2023-04-19T11:18:57;14.52;;;11.23;;
21480;SDS011;10902;48.158;8.634;2023-04-19T11:21:22;12.85;;;10.02;;
21480;SDS011;10902;48.158;8.634;2023-04-19T11:23:48;13.55;;;10.48;;
21480;SDS011;10902;48.158;8.634;2023-04-19T11:26:30;11.52;;;9.23;;
21480;SDS011;10902;48.158;8.634;2023-04-19T11:28:56;13.20;;;9.30;;
21480;SDS011;10902;48.158;8.634;2023-04-19T11:31:21;12.75;;;9.38;;
21480;SDS011;10902;48.158;8.634;2023-04-19T11:33:48;12.88;;;9.88;;
21480;SDS011;10902;48.158;8.634;2023-04-19T11:36:13;12.48;;;9.05;;
21480;SDS011;10902;48.158;8.634;2023-04-19T11:38:39;12.23;;;9.68;;
21480;SDS011;10902;48.158;8.634;2023-04-19T11:41:04;14.95;;;10.57;;
21480;SDS011;10902;48.158;8.634;2023-04-19T11:43:35;14.98;;;10.55;;
21480;SDS011;10902;48.158;8.634;2023-04-19T11:46:04;13.60;;;9.75;;
21480;SDS011;10902;48.158;8.634;2023-04-19T11:48:34;16.00;;;10.35;;
21480;SDS011;10902;48.158;8.634;2023-04-19T11:51:00;14.75;;;10.90;;
21480;SDS011;10902;48.158;8.634;2023-04-19T11:53:27;14.98;;;11.60;;
21480;SDS011;10902;48.158;8.634;2023-04-19T11:55:55;12.65;;;9.93;;
21480;SDS011;10902;48.158;8.634;2023-04-19T12:00:53;12.82;;;9.85;;
21480;SDS011;10902;48.158;8.634;2023-04-19T12:03:20;14.25;;;10.18;;
21480;SDS011;10902;48.158;8.634;2023-04-19T12:05:58;13.93;;;10.82;;
21480;SDS011;10902;48.158;8.634;2023-04-19T12:08:31;12.50;;;9.73;;
21480;SDS011;10902;48.158;8.634;2023-04-19T12:10:58;15.40;;;10.68;;
21480;SDS011;10902;48.158;8.634;2023-04-19T12:13:24;14.90;;;10.13;;
21480;SDS011;10902;48.158;8.634;2023-04-19T12:15:50;14.40;;;9.93;;
21480;SDS011;10902;48.158;8.634;2023-04-19T12:18:16;12.98;;;9.27;;
21480;SDS011;10902;48.158;8.634;2023-04-19T12:20:43;10.75;;;8.68;;
21480;SDS011;10902;48.158;8.634;2023-04-19T12:23:11;13.15;;;10.27;;
21480;SDS011;10902;48.158;8.634;2023-04-19T12:25:40;12.02;;;8.98;;
21480;SDS011;10902;48.158;8.634;2023-04-19T12:28:07;11.45;;;8.88;;
21480;SDS011;10902;48.158;8.634;2023-04-19T12:30:34;11.68;;;9.18;;
21480;SDS011;10902;48.158;8.634;2023-04-19T12:33:00;14.18;;;9.50;;
21480;SDS011;10902;48.158;8.634;2023-04-19T12:35:26;13.23;;;9.25;;
21480;SDS011;10902;48.158;8.634;2023-04-19T12:37:52;12.98;;;9.40;;
21480;SDS011;10902;48.158;8.634;2023-04-19T12:40:19;13.52;;;9.45;;
21480;SDS011;10902;48.158;8.634;2023-04-19T12:42:45;12.18;;;9.43;;
21480;SDS011;10902;48.158;8.634;2023-04-19T12:45:14;11.13;;;8.90;;
21480;SDS011;10902;48.158;8.634;2023-04-19T12:47:40;11.93;;;8.00;;
21480;SDS011;10902;48.158;8.634;2023-04-19T12:50:07;13.70;;;9.88;;
21480;SDS011;10902;48.158;8.634;2023-04-19T12:52:33;11.52;;;8.77;;
21480;SDS011;10902;48.158;8.634;2023-04-19T12:54:59;11.07;;;8.50;;
21480;SDS011;10902;48.158;8.634;2023-04-19T12:57:25;10.80;;;7.90;;
21480;SDS011;10902;48.158;8.634;2023-04-19T12:59:51;11.73;;;7.80;;
21480;SDS011;10902;48.158;8.634;2023-04-19T13:02:16;10.90;;;7.63;;
21480;SDS011;10902;48.158;8.634;2023-04-19T13:04:42;9.80;;;7.63;;
21480;SDS011;10902;48.158;8.634;2023-04-19T13:07:07;9.52;;;7.40;;
21480;SDS011;10902;48.158;8.634;2023-04-19T13:09:33;9.18;;;7.05;;
21480;SDS011;10902;48.158;8.634;2023-04-19T13:11:58;8.85;;;6.95;;
21480;SDS011;10902;48.158;8.634;2023-04-19T13:14:25;9.80;;;7.15;;
21480;SDS011;10902;48.158;8.634;2023-04-19T13:16:51;10.32;;;6.65;;
21480;SDS011;10902;48.158;8.634;2023-04-19T13:19:17;10.18;;;6.97;;
21480;SDS011;10902;48.158;8.634;2023-04-19T13:21:42;12.02;;;8.40;;
21480;SDS011;10902;48.158;8.634;2023-04-19T13:24:08;12.43;;;8.20;;
21480;SDS011;10902;48.158;8.634;2023-04-19T13:26:34;12.43;;;8.05;;
21480;SDS011;10902;48.158;8.634;2023-04-19T13:29:00;10.95;;;7.97;;
21480;SDS011;10902;48.158;8.634;2023-04-19T13:31:25;11.60;;;8.15;;
21480;SDS011;10902;48.158;8.634;2023-04-19T13:33:51;12.35;;;9.00;;
21480;SDS011;10902;48.158;8.634;2023-04-19T13:36:17;14.15;;;10.50;;
21480;SDS011;10902;48.158;8.634;2023-04-19T13:38:43;16.60;;;10.00;;
21480;SDS011;10902;48.158;8.634;2023-04-19T13:41:09;15.73;;;10.57;;
21480;SDS011;10902;48.158;8.634;2023-04-19T13:43:35;16.25;;;11.05;;
21480;SDS011;10902;48.158;8.634;2023-04-19T13:46:00;15.68;;;10.75;;
21480;SDS011;10902;48.158;8.634;2023-04-19T13:48:26;14.93;;;10.50;;
21480;SDS011;10902;48.158;8.634;2023-04-19T13:50:53;14.52;;;9.93;;
21480;SDS011;10902;48.158;8.634;2023-04-19T13:53:23;12.05;;;9.00;;
21480;SDS011;10902;48.158;8.634;2023-04-19T13:55:50;14.35;;;9.98;;
21480;SDS011;10902;48.158;8.634;2023-04-19T13:58:16;14.48;;;10.98;;
21480;SDS011;10902;48.158;8.634;2023-04-19T14:00:42;14.90;;;11.48;;
21480;SDS011;10902;48.158;8.634;2023-04-19T14:03:08;14.30;;;10.60;;
21480;SDS011;10902;48.158;8.634;2023-04-19T14:05:34;15.60;;;10.65;;
21480;SDS011;10902;48.158;8.634;2023-04-19T14:08:00;14.32;;;10.25;;
21480;SDS011;10902;48.158;8.634;2023-04-19T14:10:26;17.05;;;12.32;;
21480;SDS011;10902;48.158;8.634;2023-04-19T14:12:52;16.42;;;10.85;;
21480;SDS011;10902;48.158;8.634;2023-04-19T14:15:18;15.30;;;11.65;;
21480;SDS011;10902;48.158;8.634;2023-04-19T14:17:44;13.82;;;10.82;;
21480;SDS011;10902;48.158;8.634;2023-04-19T14:20:11;13.77;;;10.70;;
21480;SDS011;10902;48.158;8.634;2023-04-19T14:22:36;15.40;;;10.80;;
21480;SDS011;10902;48.158;8.634;2023-04-19T14:25:03;14.57;;;10.57;;
21480;SDS011;10902;48.158;8.634;2023-04-19T14:27:29;15.40;;;11.25;;
21480;SDS011;10902;48.158;8.634;2023-04-19T14:29:54;14.77;;;11.13;;
21480;SDS011;10902;48.158;8.634;2023-04-19T14:32:20;14.85;;;10.88;;
21480;SDS011;10902;48.158;8.634;2023-04-19T14:34:45;15.27;;;11.30;;
21480;SDS011;10902;48.158;8.634;2023-04-19T14:37:11;16.40;;;11.32;;
21480;SDS011;10902;48.158;8.634;2023-04-19T14:39:37;15.50;;;11.18;;
21480;SDS011;10902;48.158;8.634;2023-04-19T14:42:02;15.75;;;11.98;;
21480;SDS011;10902;48.158;8.634;2023-04-19T14:44:28;16.98;;;12.05;;
21480;SDS011;10902;48.158;8.634;2023-04-19T14:46:54;16.17;;;11.52;;